createdAt,value
2022-11-27T00:02:59.438Z,5.24
2022-11-27T00:07:01.630Z,5.23
2022-11-27T00:11:12.664Z,5.23
2022-11-27T00:15:17.295Z,5.22
2022-11-27T00:19:22.059Z,5.19
2022-11-27T00:23:26.788Z,5.15
2022-11-27T00:27:29.012Z,5.15
2022-11-27T00:31:32.841Z,5.17
2022-11-27T00:35:35.049Z,5.12
2022-11-27T00:39:37.176Z,5.09
2022-11-27T00:43:44.685Z,5.05
2022-11-27T00:47:47.570Z,5.02
2022-11-27T00:51:49.729Z,5.01
2022-11-27T00:55:51.924Z,4.97
2022-11-27T00:59:54.020Z,4.93
2022-11-27T01:03:59.714Z,4.91
2022-11-27T01:08:02.011Z,4.86
2022-11-27T01:12:04.518Z,4.79
2022-11-27T01:16:08.196Z,4.74
2022-11-27T01:20:12.542Z,4.71
2022-11-27T01:24:15.765Z,4.67
2022-11-27T01:28:17.366Z,4.62
2022-11-27T01:32:18.957Z,4.61
2022-11-27T01:36:21.406Z,4.62
2022-11-27T01:40:23.667Z,4.54
2022-11-27T01:44:25.252Z,4.43
2022-11-27T01:48:26.904Z,4.32
2022-11-27T01:52:34.553Z,4.28
2022-11-27T01:56:40.228Z,4.24
2022-11-27T02:00:41.779Z,4.14
2022-11-27T02:04:43.827Z,4.06
2022-11-27T02:08:45.722Z,3.92
2022-11-27T02:12:50.110Z,3.71
2022-11-27T02:17:02.600Z,3.67
2022-11-27T02:21:26.002Z,3.67
2022-11-27T02:25:37.756Z,3.63
2022-11-27T02:29:40.838Z,3.59
2022-11-27T02:33:46.596Z,3.39
2022-11-27T02:37:56.847Z,3.19
2022-11-27T02:42:11.307Z,3.04
2022-11-27T02:46:14.203Z,3.04
2022-11-27T02:50:20.717Z,3.17
2022-11-27T02:54:26.797Z,3.25
2022-11-27T02:58:29.757Z,3.31
2022-11-27T03:02:36.938Z,3.37
2022-11-27T03:06:47.591Z,3.44
2022-11-27T03:11:00.523Z,3.46
2022-11-27T03:15:02.097Z,3.49
2022-11-27T03:19:19.497Z,3.52
2022-11-27T03:23:21.057Z,3.57
2022-11-27T03:27:28.187Z,3.62
2022-11-27T03:31:30.481Z,3.70
2022-11-27T03:35:32.038Z,3.72
2022-11-27T03:39:34.262Z,3.75
2022-11-27T03:43:44.197Z,3.78
2022-11-27T03:48:01.818Z,3.78
2022-11-27T03:52:36.225Z,3.80
2022-11-27T03:56:48.980Z,3.78
2022-11-27T04:00:52.560Z,3.74
2022-11-27T04:04:54.107Z,3.74
2022-11-27T04:08:55.649Z,3.71
2022-11-27T04:12:57.158Z,3.72
2022-11-27T04:16:58.753Z,3.75
2022-11-27T04:21:00.362Z,3.72
2022-11-27T04:25:01.887Z,3.74
2022-11-27T04:29:03.394Z,3.77
2022-11-27T04:33:04.970Z,3.77
2022-11-27T04:37:06.518Z,3.78
2022-11-27T04:41:08.083Z,3.75
2022-11-27T04:45:10.147Z,3.72
2022-11-27T04:49:11.731Z,3.68
2022-11-27T04:53:13.356Z,3.68
2022-11-27T04:57:14.927Z,3.68
2022-11-27T05:01:16.683Z,3.67
2022-11-27T05:05:18.259Z,3.70
2022-11-27T05:09:20.039Z,3.71
2022-11-27T05:13:21.586Z,3.75
2022-11-27T05:17:23.218Z,3.78
2022-11-27T05:21:24.821Z,3.80
2022-11-27T05:25:26.356Z,3.77
2022-11-27T05:29:27.976Z,3.82
2022-11-27T05:33:29.459Z,3.84
2022-11-27T05:37:30.999Z,3.84
2022-11-27T05:41:33.381Z,3.84
2022-11-27T05:45:37.148Z,3.81
2022-11-27T05:49:39.163Z,3.82
2022-11-27T05:53:40.960Z,3.84
2022-11-27T05:57:42.602Z,3.82
2022-11-27T06:01:44.334Z,3.82
2022-11-27T06:05:45.913Z,3.82
2022-11-27T06:09:47.419Z,3.80
2022-11-27T06:13:50.064Z,3.78
2022-11-27T06:17:51.724Z,3.77
2022-11-27T06:21:53.255Z,3.80
2022-11-27T06:25:54.859Z,3.81
2022-11-27T06:29:56.365Z,3.80
2022-11-27T06:33:58.463Z,3.77
2022-11-27T06:37:59.971Z,3.77
2022-11-27T06:42:01.528Z,3.77
2022-11-27T06:46:06.933Z,3.74
2022-11-27T06:50:08.737Z,3.72
2022-11-27T06:54:10.252Z,3.75
2022-11-27T06:58:12.279Z,3.80
2022-11-27T07:02:15.016Z,3.81
2022-11-27T07:06:20.591Z,3.82
2022-11-27T07:10:22.422Z,3.86
2022-11-27T07:14:24.039Z,3.89
2022-11-27T07:18:25.595Z,3.88
2022-11-27T07:22:27.179Z,3.89
2022-11-27T07:26:29.744Z,3.93
2022-11-27T07:30:31.275Z,3.95
2022-11-27T07:34:32.840Z,3.99
2022-11-27T07:38:34.715Z,3.99
2022-11-27T07:42:38.785Z,4.04
2022-11-27T07:46:40.703Z,4.07
2022-11-27T07:50:42.231Z,4.08
2022-11-27T07:54:43.874Z,4.07
2022-11-27T07:58:46.031Z,4.11
2022-11-27T08:02:47.588Z,4.13
2022-11-27T08:06:49.694Z,4.13
2022-11-27T08:10:51.239Z,4.14
2022-11-27T08:14:52.778Z,4.17
2022-11-27T08:18:54.454Z,4.17
2022-11-27T08:23:02.295Z,4.25
2022-11-27T08:27:04.567Z,4.26
2022-11-27T08:31:08.864Z,4.29
2022-11-27T08:35:11.771Z,4.42
2022-11-27T08:39:14.325Z,4.47
2022-11-27T08:43:15.876Z,4.50
2022-11-27T08:47:17.396Z,4.59
2022-11-27T08:51:19.013Z,4.68
2022-11-27T08:55:20.624Z,4.71
2022-11-27T08:59:22.125Z,4.75
2022-11-27T09:03:23.648Z,4.79
2022-11-27T09:07:25.563Z,4.83
2022-11-27T09:11:31.118Z,4.80
2022-11-27T09:15:32.724Z,4.83
2022-11-27T09:19:34.251Z,4.90
2022-11-27T09:23:37.487Z,4.99
2022-11-27T09:27:39.099Z,5.09
2022-11-27T09:31:40.733Z,5.17
2022-11-27T09:35:42.357Z,5.32
2022-11-27T09:39:43.939Z,5.47
2022-11-27T09:43:59.044Z,5.59
2022-11-27T09:48:05.295Z,5.59
2022-11-27T09:52:38.240Z,5.66
2022-11-27T09:56:42.872Z,5.87
2022-11-27T10:00:47.894Z,6.08
2022-11-27T10:05:12.872Z,6.25
2022-11-27T10:09:27.613Z,6.36
2022-11-27T10:13:47.670Z,6.46
2022-11-27T10:17:58.358Z,6.50
2022-11-27T10:22:10.490Z,6.51
2022-11-27T10:26:18.642Z,6.60
2022-11-27T10:30:21.757Z,6.63
2022-11-27T10:34:55.444Z,6.69
2022-11-27T10:38:59.866Z,6.73
2022-11-27T10:43:15.787Z,6.78
2022-11-27T10:47:20.268Z,6.81
2022-11-27T10:51:29.444Z,6.82
2022-11-27T10:55:55.562Z,6.86
2022-11-27T11:00:05.206Z,6.93
2022-11-27T11:04:31.353Z,7.04
2022-11-27T11:08:30.083Z,7.19
2022-11-27T11:12:31.725Z,7.41
2022-11-27T11:16:42.987Z,7.51
2022-11-27T11:20:48.903Z,7.67
2022-11-27T11:24:53.031Z,7.77
2022-11-27T11:28:57.581Z,7.85
2022-11-27T11:33:02.211Z,7.84
2022-11-27T11:37:07.306Z,7.84
2022-11-27T11:41:09.549Z,7.81
2022-11-27T11:45:11.003Z,7.76
2022-11-27T11:49:26.866Z,7.85
2022-11-27T11:53:38.868Z,7.89
2022-11-27T11:58:10.178Z,7.85
2022-11-27T12:02:25.276Z,7.73
2022-11-27T12:06:37.900Z,7.66
2022-11-27T12:10:53.871Z,7.63
2022-11-27T12:15:15.849Z,7.62
2022-11-27T12:20:00.120Z,7.60
2022-11-27T12:24:09.622Z,7.60
2022-11-27T12:28:29.692Z,7.60
2022-11-27T12:32:34.357Z,7.67
2022-11-27T12:37:00.600Z,7.82
2022-11-27T12:41:33.441Z,7.99
2022-11-27T12:45:46.571Z,7.96
2022-11-27T12:49:53.091Z,7.94
2022-11-27T12:54:00.700Z,7.96
2022-11-27T12:58:07.016Z,7.88
2022-11-27T13:02:20.709Z,7.85
2022-11-27T13:06:27.902Z,7.82
2022-11-27T13:10:41.300Z,7.84
2022-11-27T13:14:46.441Z,7.77
2022-11-27T13:19:12.908Z,7.76
2022-11-27T13:23:15.425Z,7.71
2022-11-27T13:27:20.970Z,7.69
2022-11-27T13:31:26.751Z,7.58
2022-11-27T13:35:36.439Z,7.58
2022-11-27T13:39:40.522Z,7.50
2022-11-27T13:43:44.206Z,7.42
2022-11-27T13:47:46.594Z,7.34
2022-11-27T13:51:48.243Z,7.39
2022-11-27T13:55:56.623Z,7.42
2022-11-27T14:00:16.178Z,7.42
2022-11-27T14:04:17.729Z,7.44
2022-11-27T14:08:33.375Z,7.42
2022-11-27T14:12:36.260Z,7.44
2022-11-27T14:16:39.531Z,7.45
2022-11-27T14:21:23.181Z,7.45
2022-11-27T14:25:34.086Z,7.39
2022-11-27T14:29:35.763Z,7.33
2022-11-27T14:34:07.431Z,7.32
2022-11-27T14:38:10.138Z,7.27
2022-11-27T14:42:32.979Z,7.27
2022-11-27T14:46:37.424Z,7.23
2022-11-27T14:50:39.634Z,7.18
2022-11-27T14:54:41.923Z,7.14
2022-11-27T14:58:50.139Z,7.12
2022-11-27T15:02:52.145Z,7.11
2022-11-27T15:06:55.963Z,7.08
2022-11-27T15:10:59.559Z,7.09
2022-11-27T15:15:18.091Z,7.00
2022-11-27T15:19:32.743Z,6.99
2022-11-27T15:23:35.363Z,6.97
2022-11-27T15:27:47.447Z,6.90
2022-11-27T15:31:52.375Z,6.93
2022-11-27T15:36:06.255Z,6.91
2022-11-27T15:40:24.765Z,6.90
2022-11-27T15:44:28.639Z,6.91
2022-11-27T15:48:30.212Z,6.90
2022-11-27T15:52:31.878Z,6.87
2022-11-27T15:56:33.401Z,6.86
2022-11-27T16:00:35.057Z,6.87
2022-11-27T16:04:36.600Z,6.87
2022-11-27T16:08:38.180Z,6.86
2022-11-27T16:12:39.840Z,6.83
2022-11-27T16:16:41.574Z,6.82
2022-11-27T16:20:43.188Z,6.78
2022-11-27T16:24:44.876Z,6.79
2022-11-27T16:28:46.478Z,6.78
2022-11-27T16:32:50.548Z,6.75
2022-11-27T16:36:52.938Z,6.73
2022-11-27T16:40:59.918Z,6.72
2022-11-27T16:45:02.235Z,6.69
2022-11-27T16:49:09.037Z,6.63
2022-11-27T16:53:10.635Z,6.55
2022-11-27T16:57:12.983Z,6.55
2022-11-27T17:01:18.264Z,6.54
2022-11-27T17:05:19.831Z,6.55
2022-11-27T17:09:24.611Z,6.48
2022-11-27T17:13:26.608Z,6.50
2022-11-27T17:17:28.326Z,6.54
2022-11-27T17:21:31.734Z,6.57
2022-11-27T17:25:33.703Z,6.61
2022-11-27T17:29:36.097Z,6.64
2022-11-27T17:33:38.262Z,6.64
2022-11-27T17:37:39.854Z,6.65
2022-11-27T17:41:44.451Z,6.57
2022-11-27T17:45:46.049Z,6.53
2022-11-27T17:49:47.737Z,6.53
2022-11-27T17:53:49.492Z,6.54
2022-11-27T17:57:53.317Z,6.53
2022-11-27T18:01:55.099Z,6.57
2022-11-27T18:06:01.510Z,6.58
2022-11-27T18:10:03.873Z,6.58
2022-11-27T18:14:05.620Z,6.58
2022-11-27T18:18:07.733Z,6.60
2022-11-27T18:22:11.203Z,6.60
2022-11-27T18:26:21.003Z,6.63
2022-11-27T18:30:28.710Z,6.63
2022-11-27T18:34:30.262Z,6.64
2022-11-27T18:38:33.102Z,6.65
2022-11-27T18:42:35.018Z,6.69
2022-11-27T18:46:37.249Z,6.71
2022-11-27T18:50:38.874Z,6.68
2022-11-27T18:54:40.506Z,6.65
2022-11-27T18:58:42.761Z,6.65
2022-11-27T19:02:46.099Z,6.65
2022-11-27T19:06:47.829Z,6.63
2022-11-27T19:10:49.526Z,6.60
2022-11-27T19:14:51.375Z,6.61
2022-11-27T19:18:56.840Z,6.61
2022-11-27T19:22:58.498Z,6.63
2022-11-27T19:27:00.106Z,6.64
2022-11-27T19:31:10.114Z,6.65
2022-11-27T19:35:12.758Z,6.61
2022-11-27T19:39:15.273Z,6.68
2022-11-27T19:43:17.730Z,6.68
2022-11-27T19:47:19.703Z,6.69
2022-11-27T19:51:21.284Z,6.71
2022-11-27T19:55:22.891Z,6.75
2022-11-27T19:59:26.186Z,6.65
2022-11-27T20:03:29.172Z,6.65
2022-11-27T20:07:30.809Z,6.69
2022-11-27T20:11:35.168Z,6.72
2022-11-27T20:15:39.308Z,6.78
2022-11-27T20:19:41.234Z,6.83
2022-11-27T20:23:43.919Z,6.94
2022-11-27T20:27:46.011Z,7.00
2022-11-27T20:31:48.690Z,7.08
2022-11-27T20:35:50.378Z,7.12
2022-11-27T20:39:52.033Z,7.15
2022-11-27T20:43:56.296Z,7.18
2022-11-27T20:47:57.927Z,7.19
2022-11-27T20:52:03.276Z,7.19
2022-11-27T20:56:06.555Z,7.23
2022-11-27T21:00:09.781Z,7.23
2022-11-27T21:04:19.652Z,7.24
2022-11-27T21:08:22.384Z,7.23
2022-11-27T21:12:24.004Z,7.23
2022-11-27T21:16:28.368Z,7.23
2022-11-27T21:20:31.131Z,7.21
2022-11-27T21:24:32.797Z,7.19
2022-11-27T21:28:35.059Z,7.21
2022-11-27T21:32:36.889Z,7.19
2022-11-27T21:36:38.883Z,7.19
2022-11-27T21:40:40.461Z,7.19
2022-11-27T21:44:42.440Z,7.18
2022-11-27T21:48:46.195Z,7.16
2022-11-27T21:52:48.012Z,7.15
2022-11-27T21:56:53.387Z,7.15
2022-11-27T22:00:55.012Z,7.12
2022-11-27T22:04:56.605Z,7.12
2022-11-27T22:08:59.025Z,7.12
2022-11-27T22:13:00.591Z,7.11
2022-11-27T22:17:02.248Z,7.11
2022-11-27T22:21:08.177Z,7.11
2022-11-27T22:25:10.075Z,7.11
2022-11-27T22:29:11.815Z,7.08
2022-11-27T22:33:13.468Z,7.08
2022-11-27T22:37:15.189Z,7.08
2022-11-27T22:41:18.028Z,7.07
2022-11-27T22:45:20.274Z,7.07
2022-11-27T22:49:21.799Z,7.05
2022-11-27T22:53:23.406Z,7.04
2022-11-27T22:57:25.703Z,7.01
2022-11-27T23:01:29.027Z,7.00
2022-11-27T23:05:30.752Z,7.00
2022-11-27T23:09:33.520Z,7.01
2022-11-27T23:13:35.449Z,7.00
2022-11-27T23:17:36.996Z,7.00
2022-11-27T23:21:39.075Z,6.99
2022-11-27T23:25:40.674Z,6.99
2022-11-27T23:29:42.237Z,6.99
2022-11-27T23:33:44.161Z,6.97
2022-11-27T23:37:45.815Z,6.94
2022-11-27T23:41:49.437Z,6.93
2022-11-27T23:45:51.021Z,6.89
2022-11-27T23:49:52.569Z,6.90
2022-11-27T23:53:54.460Z,6.87
2022-11-27T23:57:55.939Z,6.87
